sensor_id;sensor_type;location;lat;lon;timestamp;temperature;humidity
68867;SHT30;56451;44.804;20.476;2023-12-22T00:00:14;12.77;41.54
68867;SHT30;56451;44.804;20.476;2023-12-22T00:03:01;12.76;41.28
68867;SHT30;56451;44.804;20.476;2023-12-22T00:05:47;12.77;41.40
68867;SHT30;56451;44.804;20.476;2023-12-22T00:08:33;12.78;41.42
68867;SHT30;56451;44.804;20.476;2023-12-22T00:11:19;12.78;41.35
68867;SHT30;56451;44.804;20.476;2023-12-22T00:13:45;12.83;41.50
68867;SHT30;56451;44.804;20.476;2023-12-22T00:16:11;12.78;41.51
68867;SHT30;56451;44.804;20.476;2023-12-22T00:18:41;12.81;41.62
68867;SHT30;56451;44.804;20.476;2023-12-22T00:21:15;12.85;41.46
68867;SHT30;56451;44.804;20.476;2023-12-22T00:24:00;12.80;41.48
68867;SHT30;56451;44.804;20.476;2023-12-22T00:26:46;12.80;41.48
68867;SHT30;56451;44.804;20.476;2023-12-22T00:29:32;12.83;41.47
68867;SHT30;56451;44.804;20.476;2023-12-22T00:32:01;12.81;41.51
68867;SHT30;56451;44.804;20.476;2023-12-22T00:34:28;12.78;41.59
68867;SHT30;56451;44.804;20.476;2023-12-22T00:36:54;12.81;41.52
68867;SHT30;56451;44.804;20.476;2023-12-22T00:39:20;12.81;41.44
68867;SHT30;56451;44.804;20.476;2023-12-22T00:41:46;12.83;41.65
68867;SHT30;56451;44.804;20.476;2023-12-22T00:44:14;12.83;41.41
68867;SHT30;56451;44.804;20.476;2023-12-22T00:47:00;12.81;41.51
68867;SHT30;56451;44.804;20.476;2023-12-22T00:49:46;12.78;41.74
68867;SHT30;56451;44.804;20.476;2023-12-22T00:52:12;12.81;41.78
68867;SHT30;56451;44.804;20.476;2023-12-22T00:54:38;12.78;41.77
68867;SHT30;56451;44.804;20.476;2023-12-22T00:57:04;12.83;41.67
68867;SHT30;56451;44.804;20.476;2023-12-22T00:59:34;12.83;41.72
68867;SHT30;56451;44.804;20.476;2023-12-22T01:02:06;12.84;41.72
68867;SHT30;56451;44.804;20.476;2023-12-22T01:04:33;12.85;41.56
68867;SHT30;56451;44.804;20.476;2023-12-22T01:07:02;12.84;41.73
68867;SHT30;56451;44.804;20.476;2023-12-22T01:09:29;12.84;41.74
68867;SHT30;56451;44.804;20.476;2023-12-22T01:11:54;12.84;41.91
68867;SHT30;56451;44.804;20.476;2023-12-22T01:14:21;12.88;41.65
68867;SHT30;56451;44.804;20.476;2023-12-22T01:16:49;12.91;41.61
68867;SHT30;56451;44.804;20.476;2023-12-22T01:19:16;12.88;41.79
68867;SHT30;56451;44.804;20.476;2023-12-22T01:22:02;12.92;41.67
68867;SHT30;56451;44.804;20.476;2023-12-22T01:24:48;12.97;41.61
68867;SHT30;56451;44.804;20.476;2023-12-22T01:27:34;12.97;41.42
68867;SHT30;56451;44.804;20.476;2023-12-22T01:30:00;12.99;41.55
68867;SHT30;56451;44.804;20.476;2023-12-22T01:32:28;12.99;41.64
68867;SHT30;56451;44.804;20.476;2023-12-22T01:35:00;13.05;41.50
68867;SHT30;56451;44.804;20.476;2023-12-22T01:37:30;13.11;41.20
68867;SHT30;56451;44.804;20.476;2023-12-22T01:39:56;13.12;41.23
68867;SHT30;56451;44.804;20.476;2023-12-22T01:42:22;13.15;41.26
68867;SHT30;56451;44.804;20.476;2023-12-22T01:44:50;13.16;41.09
68867;SHT30;56451;44.804;20.476;2023-12-22T01:47:18;13.19;41.12
68867;SHT30;56451;44.804;20.476;2023-12-22T01:49:49;13.23;41.06
68867;SHT30;56451;44.804;20.476;2023-12-22T01:52:16;13.23;41.40
68867;SHT30;56451;44.804;20.476;2023-12-22T01:54:43;13.27;41.69
68867;SHT30;56451;44.804;20.476;2023-12-22T01:57:29;13.34;41.92
68867;SHT30;56451;44.804;20.476;2023-12-22T01:59:56;13.30;42.32
68867;SHT30;56451;44.804;20.476;2023-12-22T02:02:22;13.32;42.46
68867;SHT30;56451;44.804;20.476;2023-12-22T02:05:08;13.35;42.42
68867;SHT30;56451;44.804;20.476;2023-12-22T02:07:55;13.32;42.41
68867;SHT30;56451;44.804;20.476;2023-12-22T02:10:41;13.26;42.34
68867;SHT30;56451;44.804;20.476;2023-12-22T02:13:27;13.18;42.36
68867;SHT30;56451;44.804;20.476;2023-12-22T02:16:39;13.19;42.41
68867;SHT30;56451;44.804;20.476;2023-12-22T02:19:41;13.22;42.17
68867;SHT30;56451;44.804;20.476;2023-12-22T02:22:29;13.25;42.25
68867;SHT30;56451;44.804;20.476;2023-12-22T02:25:15;13.29;42.16
68867;SHT30;56451;44.804;20.476;2023-12-22T02:28:08;13.27;41.96
68867;SHT30;56451;44.804;20.476;2023-12-22T02:33:47;13.35;41.99
68867;SHT30;56451;44.804;20.476;2023-12-22T02:36:36;13.40;41.88
68867;SHT30;56451;44.804;20.476;2023-12-22T02:39:23;13.38;42.01
68867;SHT30;56451;44.804;20.476;2023-12-22T02:42:09;13.35;42.15
68867;SHT30;56451;44.804;20.476;2023-12-22T02:44:58;13.42;42.05
68867;SHT30;56451;44.804;20.476;2023-12-22T02:47:45;13.42;42.05
68867;SHT30;56451;44.804;20.476;2023-12-22T02:50:31;13.45;41.97
68867;SHT30;56451;44.804;20.476;2023-12-22T02:53:17;13.39;41.86
68867;SHT30;56451;44.804;20.476;2023-12-22T02:56:04;13.40;42.18
68867;SHT30;56451;44.804;20.476;2023-12-22T02:58:49;13.39;42.14
68867;SHT30;56451;44.804;20.476;2023-12-22T03:01:36;13.39;42.24
68867;SHT30;56451;44.804;20.476;2023-12-22T03:04:26;13.34;42.32
68867;SHT30;56451;44.804;20.476;2023-12-22T03:07:13;13.32;42.58
68867;SHT30;56451;44.804;20.476;2023-12-22T03:10:01;13.30;42.52
68867;SHT30;56451;44.804;20.476;2023-12-22T03:12:47;13.26;42.73
68867;SHT30;56451;44.804;20.476;2023-12-22T03:15:42;13.27;42.85
68867;SHT30;56451;44.804;20.476;2023-12-22T03:18:29;13.27;42.90
68867;SHT30;56451;44.804;20.476;2023-12-22T03:20:55;13.26;42.94
68867;SHT30;56451;44.804;20.476;2023-12-22T03:23:21;13.26;43.03
68867;SHT30;56451;44.804;20.476;2023-12-22T03:25:48;13.22;43.37
68867;SHT30;56451;44.804;20.476;2023-12-22T03:28:14;13.23;43.40
68867;SHT30;56451;44.804;20.476;2023-12-22T03:31:00;13.30;43.70
68867;SHT30;56451;44.804;20.476;2023-12-22T03:33:46;13.26;44.25
68867;SHT30;56451;44.804;20.476;2023-12-22T03:36:32;13.19;45.14
68867;SHT30;56451;44.804;20.476;2023-12-22T03:39:19;13.05;47.62
68867;SHT30;56451;44.804;20.476;2023-12-22T03:42:05;12.73;50.05
68867;SHT30;56451;44.804;20.476;2023-12-22T03:44:51;12.19;53.84
68867;SHT30;56451;44.804;20.476;2023-12-22T03:47:37;11.72;55.36
68867;SHT30;56451;44.804;20.476;2023-12-22T03:50:23;11.20;58.29
68867;SHT30;56451;44.804;20.476;2023-12-22T03:52:49;10.96;59.73
68867;SHT30;56451;44.804;20.476;2023-12-22T03:55:15;10.75;61.13
68867;SHT30;56451;44.804;20.476;2023-12-22T03:57:44;10.58;62.91
68867;SHT30;56451;44.804;20.476;2023-12-22T04:00:11;10.40;63.75
68867;SHT30;56451;44.804;20.476;2023-12-22T04:02:37;10.30;65.20
68867;SHT30;56451;44.804;20.476;2023-12-22T04:05:03;10.11;66.10
68867;SHT30;56451;44.804;20.476;2023-12-22T04:07:29;9.80;67.13
68867;SHT30;56451;44.804;20.476;2023-12-22T04:09:56;9.62;68.65
68867;SHT30;56451;44.804;20.476;2023-12-22T04:12:25;9.50;69.35
68867;SHT30;56451;44.804;20.476;2023-12-22T04:14:51;9.38;70.52
68867;SHT30;56451;44.804;20.476;2023-12-22T04:17:20;9.34;71.24
68867;SHT30;56451;44.804;20.476;2023-12-22T04:19:47;9.29;72.48
68867;SHT30;56451;44.804;20.476;2023-12-22T04:22:33;9.39;72.61
68867;SHT30;56451;44.804;20.476;2023-12-22T04:25:19;9.50;71.69
68867;SHT30;56451;44.804;20.476;2023-12-22T04:27:45;9.62;71.44
68867;SHT30;56451;44.804;20.476;2023-12-22T04:30:15;9.67;71.86
68867;SHT30;56451;44.804;20.476;2023-12-22T04:32:41;9.76;71.04
68867;SHT30;56451;44.804;20.476;2023-12-22T04:35:07;9.89;71.56
68867;SHT30;56451;44.804;20.476;2023-12-22T04:37:33;10.00;71.18
68867;SHT30;56451;44.804;20.476;2023-12-22T04:40:00;10.11;70.44
68867;SHT30;56451;44.804;20.476;2023-12-22T04:42:26;10.17;70.28
68867;SHT30;56451;44.804;20.476;2023-12-22T04:44:53;10.27;70.22
68867;SHT30;56451;44.804;20.476;2023-12-22T04:47:40;10.40;69.47
68867;SHT30;56451;44.804;20.476;2023-12-22T04:50:06;10.49;69.21
68867;SHT30;56451;44.804;20.476;2023-12-22T04:52:32;10.55;68.96
68867;SHT30;56451;44.804;20.476;2023-12-22T04:54:59;10.62;68.53
68867;SHT30;56451;44.804;20.476;2023-12-22T04:57:25;10.72;68.11
68867;SHT30;56451;44.804;20.476;2023-12-22T04:59:53;10.72;68.08
68867;SHT30;56451;44.804;20.476;2023-12-22T05:02:19;10.80;66.75
68867;SHT30;56451;44.804;20.476;2023-12-22T05:04:46;10.80;66.01
68867;SHT30;56451;44.804;20.476;2023-12-22T05:07:14;10.73;66.60
68867;SHT30;56451;44.804;20.476;2023-12-22T05:09:42;10.48;67.11
68867;SHT30;56451;44.804;20.476;2023-12-22T05:12:08;10.30;67.86
68867;SHT30;56451;44.804;20.476;2023-12-22T05:14:34;10.24;68.29
68867;SHT30;56451;44.804;20.476;2023-12-22T05:17:01;10.13;69.00
68867;SHT30;56451;44.804;20.476;2023-12-22T05:19:27;10.04;69.15
68867;SHT30;56451;44.804;20.476;2023-12-22T05:21:53;9.96;69.03
68867;SHT30;56451;44.804;20.476;2023-12-22T05:24:22;9.94;69.36
68867;SHT30;56451;44.804;20.476;2023-12-22T05:26:48;9.90;69.87
68867;SHT30;56451;44.804;20.476;2023-12-22T05:29:35;9.76;69.43
68867;SHT30;56451;44.804;20.476;2023-12-22T05:32:01;9.73;69.84
68867;SHT30;56451;44.804;20.476;2023-12-22T05:34:27;9.72;69.54
68867;SHT30;56451;44.804;20.476;2023-12-22T05:36:53;9.69;69.75
68867;SHT30;56451;44.804;20.476;2023-12-22T05:39:19;9.67;69.86
68867;SHT30;56451;44.804;20.476;2023-12-22T05:41:45;9.67;69.79
68867;SHT30;56451;44.804;20.476;2023-12-22T05:44:18;9.70;69.89
68867;SHT30;56451;44.804;20.476;2023-12-22T05:47:04;9.75;70.05
68867;SHT30;56451;44.804;20.476;2023-12-22T05:49:51;9.69;69.94
68867;SHT30;56451;44.804;20.476;2023-12-22T05:52:36;9.70;69.79
68867;SHT30;56451;44.804;20.476;2023-12-22T05:55:23;9.70;69.55
68867;SHT30;56451;44.804;20.476;2023-12-22T05:58:10;9.67;69.56
68867;SHT30;56451;44.804;20.476;2023-12-22T06:00:56;9.69;69.69
68867;SHT30;56451;44.804;20.476;2023-12-22T06:03:42;9.67;69.63
68867;SHT30;56451;44.804;20.476;2023-12-22T06:06:30;9.59;70.13
68867;SHT30;56451;44.804;20.476;2023-12-22T06:09:16;9.58;70.00
68867;SHT30;56451;44.804;20.476;2023-12-22T06:12:02;9.60;69.19
68867;SHT30;56451;44.804;20.476;2023-12-22T06:14:49;9.66;68.77
68867;SHT30;56451;44.804;20.476;2023-12-22T06:17:35;9.70;68.54
68867;SHT30;56451;44.804;20.476;2023-12-22T06:20:22;9.83;68.32
68867;SHT30;56451;44.804;20.476;2023-12-22T06:22:48;9.87;68.21
68867;SHT30;56451;44.804;20.476;2023-12-22T06:25:18;9.96;67.80
68867;SHT30;56451;44.804;20.476;2023-12-22T06:27:46;10.04;67.06
68867;SHT30;56451;44.804;20.476;2023-12-22T06:30:14;10.13;66.67
68867;SHT30;56451;44.804;20.476;2023-12-22T06:35:40;10.33;65.78
68867;SHT30;56451;44.804;20.476;2023-12-22T06:38:11;10.34;65.89
68867;SHT30;56451;44.804;20.476;2023-12-22T06:41:22;10.48;65.89
68867;SHT30;56451;44.804;20.476;2023-12-22T06:43:51;10.58;65.94
68867;SHT30;56451;44.804;20.476;2023-12-22T06:46:19;10.62;65.16
68867;SHT30;56451;44.804;20.476;2023-12-22T06:48:52;10.59;64.87
68867;SHT30;56451;44.804;20.476;2023-12-22T06:51:27;10.62;64.81
68867;SHT30;56451;44.804;20.476;2023-12-22T06:54:04;10.65;65.23
68867;SHT30;56451;44.804;20.476;2023-12-22T06:56:34;10.68;64.87
68867;SHT30;56451;44.804;20.476;2023-12-22T06:59:03;10.66;64.90
68867;SHT30;56451;44.804;20.476;2023-12-22T07:01:31;10.73;65.10
68867;SHT30;56451;44.804;20.476;2023-12-22T07:04:19;10.69;65.44
68867;SHT30;56451;44.804;20.476;2023-12-22T07:06:45;10.66;65.84
68867;SHT30;56451;44.804;20.476;2023-12-22T07:13:14;10.66;66.07
68867;SHT30;56451;44.804;20.476;2023-12-22T07:19:26;10.77;65.86
68867;SHT30;56451;44.804;20.476;2023-12-22T07:22:48;10.80;65.42
68867;SHT30;56451;44.804;20.476;2023-12-22T07:25:25;10.72;65.79
68867;SHT30;56451;44.804;20.476;2023-12-22T07:28:00;10.71;65.93
68867;SHT30;56451;44.804;20.476;2023-12-22T07:30:31;10.66;65.87
68867;SHT30;56451;44.804;20.476;2023-12-22T07:33:02;10.66;66.04
68867;SHT30;56451;44.804;20.476;2023-12-22T07:35:29;10.73;66.14
68867;SHT30;56451;44.804;20.476;2023-12-22T07:38:02;10.73;66.11
68867;SHT30;56451;44.804;20.476;2023-12-22T07:40:31;10.80;66.02
68867;SHT30;56451;44.804;20.476;2023-12-22T07:43:04;10.88;65.79
68867;SHT30;56451;44.804;20.476;2023-12-22T07:45:32;10.95;65.68
68867;SHT30;56451;44.804;20.476;2023-12-22T07:47:58;10.97;65.53
68867;SHT30;56451;44.804;20.476;2023-12-22T07:50:25;10.97;65.47
68867;SHT30;56451;44.804;20.476;2023-12-22T07:52:51;11.02;65.63
68867;SHT30;56451;44.804;20.476;2023-12-22T07:55:18;11.03;65.41
68867;SHT30;56451;44.804;20.476;2023-12-22T07:57:45;11.07;65.55
68867;SHT30;56451;44.804;20.476;2023-12-22T08:00:13;10.99;65.93
68867;SHT30;56451;44.804;20.476;2023-12-22T08:02:39;10.99;65.87
68867;SHT30;56451;44.804;20.476;2023-12-22T08:05:08;10.95;66.02
68867;SHT30;56451;44.804;20.476;2023-12-22T08:07:36;10.96;65.62
68867;SHT30;56451;44.804;20.476;2023-12-22T08:10:12;10.99;65.33
68867;SHT30;56451;44.804;20.476;2023-12-22T08:12:59;10.97;65.79
68867;SHT30;56451;44.804;20.476;2023-12-22T08:15:45;11.00;65.52
68867;SHT30;56451;44.804;20.476;2023-12-22T08:18:33;11.02;65.27
68867;SHT30;56451;44.804;20.476;2023-12-22T08:21:22;11.07;64.55
68867;SHT30;56451;44.804;20.476;2023-12-22T08:23:50;11.06;64.51
68867;SHT30;56451;44.804;20.476;2023-12-22T08:26:37;11.09;64.84
68867;SHT30;56451;44.804;20.476;2023-12-22T08:29:23;11.06;64.73
68867;SHT30;56451;44.804;20.476;2023-12-22T08:32:11;11.16;64.35
68867;SHT30;56451;44.804;20.476;2023-12-22T08:35:01;11.14;64.64
68867;SHT30;56451;44.804;20.476;2023-12-22T08:37:47;11.19;64.80
68867;SHT30;56451;44.804;20.476;2023-12-22T08:40:40;11.14;65.16
68867;SHT30;56451;44.804;20.476;2023-12-22T08:43:07;11.13;65.11
68867;SHT30;56451;44.804;20.476;2023-12-22T08:45:34;11.13;64.93
68867;SHT30;56451;44.804;20.476;2023-12-22T08:48:02;11.12;64.92
68867;SHT30;56451;44.804;20.476;2023-12-22T08:50:48;11.09;64.89
68867;SHT30;56451;44.804;20.476;2023-12-22T08:53:35;11.09;64.89
68867;SHT30;56451;44.804;20.476;2023-12-22T08:56:31;11.12;64.95
68867;SHT30;56451;44.804;20.476;2023-12-22T08:59:17;11.19;64.51
68867;SHT30;56451;44.804;20.476;2023-12-22T09:02:06;11.26;64.03
68867;SHT30;56451;44.804;20.476;2023-12-22T09:04:52;11.26;64.03
68867;SHT30;56451;44.804;20.476;2023-12-22T09:07:19;11.35;63.86
68867;SHT30;56451;44.804;20.476;2023-12-22T09:09:49;11.47;63.07
68867;SHT30;56451;44.804;20.476;2023-12-22T09:12:36;11.50;62.54
68867;SHT30;56451;44.804;20.476;2023-12-22T09:15:23;11.54;61.59
68867;SHT30;56451;44.804;20.476;2023-12-22T09:18:09;11.52;61.33
68867;SHT30;56451;44.804;20.476;2023-12-22T09:20:58;11.52;61.43
68867;SHT30;56451;44.804;20.476;2023-12-22T09:23:46;11.50;61.27
68867;SHT30;56451;44.804;20.476;2023-12-22T09:26:32;11.48;61.50
68867;SHT30;56451;44.804;20.476;2023-12-22T09:28:59;11.41;62.03
68867;SHT30;56451;44.804;20.476;2023-12-22T09:31:51;11.50;61.63
68867;SHT30;56451;44.804;20.476;2023-12-22T09:34:38;11.52;61.92
68867;SHT30;56451;44.804;20.476;2023-12-22T09:37:24;11.54;62.17
68867;SHT30;56451;44.804;20.476;2023-12-22T09:40:17;11.54;61.67
68867;SHT30;56451;44.804;20.476;2023-12-22T09:43:08;11.55;61.19
68867;SHT30;56451;44.804;20.476;2023-12-22T09:45:57;11.60;61.78
68867;SHT30;56451;44.804;20.476;2023-12-22T09:48:49;11.51;62.32
68867;SHT30;56451;44.804;20.476;2023-12-22T09:51:49;11.43;62.91
68867;SHT30;56451;44.804;20.476;2023-12-22T09:54:43;11.37;63.63
68867;SHT30;56451;44.804;20.476;2023-12-22T09:57:57;11.37;63.56
68867;SHT30;56451;44.804;20.476;2023-12-22T10:00:33;11.27;64.16
68867;SHT30;56451;44.804;20.476;2023-12-22T10:03:13;11.27;64.23
68867;SHT30;56451;44.804;20.476;2023-12-22T10:06:07;11.28;63.94
68867;SHT30;56451;44.804;20.476;2023-12-22T10:08:58;11.23;64.37
68867;SHT30;56451;44.804;20.476;2023-12-22T10:11:52;11.23;64.63
68867;SHT30;56451;44.804;20.476;2023-12-22T10:15:04;11.22;64.55
68867;SHT30;56451;44.804;20.476;2023-12-22T10:17:51;11.20;64.82
68867;SHT30;56451;44.804;20.476;2023-12-22T10:20:42;11.23;64.69
68867;SHT30;56451;44.804;20.476;2023-12-22T10:23:28;11.20;64.78
68867;SHT30;56451;44.804;20.476;2023-12-22T10:26:15;11.28;64.79
68867;SHT30;56451;44.804;20.476;2023-12-22T10:28:53;11.40;64.58
68867;SHT30;56451;44.804;20.476;2023-12-22T10:31:42;11.47;64.06
68867;SHT30;56451;44.804;20.476;2023-12-22T10:34:29;11.54;63.80
68867;SHT30;56451;44.804;20.476;2023-12-22T10:37:15;11.65;63.48
68867;SHT30;56451;44.804;20.476;2023-12-22T10:39:44;11.77;62.94
68867;SHT30;56451;44.804;20.476;2023-12-22T10:42:32;11.86;62.31
68867;SHT30;56451;44.804;20.476;2023-12-22T10:45:18;11.88;61.65
68867;SHT30;56451;44.804;20.476;2023-12-22T10:47:45;11.79;61.83
68867;SHT30;56451;44.804;20.476;2023-12-22T10:50:32;11.85;61.71
68867;SHT30;56451;44.804;20.476;2023-12-22T10:53:18;11.81;61.68
68867;SHT30;56451;44.804;20.476;2023-12-22T10:56:04;11.81;61.42
68867;SHT30;56451;44.804;20.476;2023-12-22T10:58:51;11.71;60.92
68867;SHT30;56451;44.804;20.476;2023-12-22T11:01:38;11.68;61.31
68867;SHT30;56451;44.804;20.476;2023-12-22T11:04:35;11.60;61.57
68867;SHT30;56451;44.804;20.476;2023-12-22T11:07:03;11.55;62.16
68867;SHT30;56451;44.804;20.476;2023-12-22T11:09:54;11.47;62.87
68867;SHT30;56451;44.804;20.476;2023-12-22T11:12:26;11.33;63.60
68867;SHT30;56451;44.804;20.476;2023-12-22T11:15:14;11.22;64.34
68867;SHT30;56451;44.804;20.476;2023-12-22T11:18:01;11.17;64.67
68867;SHT30;56451;44.804;20.476;2023-12-22T11:20:48;11.14;64.99
68867;SHT30;56451;44.804;20.476;2023-12-22T11:23:36;11.23;64.85
68867;SHT30;56451;44.804;20.476;2023-12-22T11:26:04;11.31;64.54
68867;SHT30;56451;44.804;20.476;2023-12-22T11:28:33;11.33;63.58
68867;SHT30;56451;44.804;20.476;2023-12-22T11:31:19;11.33;63.79
68867;SHT30;56451;44.804;20.476;2023-12-22T11:34:07;11.35;63.96
68867;SHT30;56451;44.804;20.476;2023-12-22T11:36:54;11.37;61.99
68867;SHT30;56451;44.804;20.476;2023-12-22T11:39:45;11.34;62.50
68867;SHT30;56451;44.804;20.476;2023-12-22T11:42:37;11.40;61.98
68867;SHT30;56451;44.804;20.476;2023-12-22T11:45:24;11.44;61.84
68867;SHT30;56451;44.804;20.476;2023-12-22T11:48:11;11.47;61.20
68867;SHT30;56451;44.804;20.476;2023-12-22T11:50:57;11.45;61.47
68867;SHT30;56451;44.804;20.476;2023-12-22T11:53:43;11.45;61.32
68867;SHT30;56451;44.804;20.476;2023-12-22T11:56:30;11.41;61.06
68867;SHT30;56451;44.804;20.476;2023-12-22T11:59:12;11.43;60.91
68867;SHT30;56451;44.804;20.476;2023-12-22T12:01:54;11.52;60.89
68867;SHT30;56451;44.804;20.476;2023-12-22T12:04:40;11.55;60.60
68867;SHT30;56451;44.804;20.476;2023-12-22T12:07:39;11.65;58.63
68867;SHT30;56451;44.804;20.476;2023-12-22T12:13:22;11.60;59.04
68867;SHT30;56451;44.804;20.476;2023-12-22T12:16:10;11.68;59.17
68867;SHT30;56451;44.804;20.476;2023-12-22T12:18:58;11.72;59.15
68867;SHT30;56451;44.804;20.476;2023-12-22T12:21:25;11.83;59.05
68867;SHT30;56451;44.804;20.476;2023-12-22T12:24:11;11.91;58.70
68867;SHT30;56451;44.804;20.476;2023-12-22T12:26:57;11.95;58.85
68867;SHT30;56451;44.804;20.476;2023-12-22T12:29:44;12.02;58.77
68867;SHT30;56451;44.804;20.476;2023-12-22T12:32:30;12.12;57.07
68867;SHT30;56451;44.804;20.476;2023-12-22T12:35:18;12.05;57.10
68867;SHT30;56451;44.804;20.476;2023-12-22T12:37:45;11.92;56.53
68867;SHT30;56451;44.804;20.476;2023-12-22T12:40:36;11.83;57.69
68867;SHT30;56451;44.804;20.476;2023-12-22T12:43:25;11.75;57.09
68867;SHT30;56451;44.804;20.476;2023-12-22T12:46:11;11.71;57.58
68867;SHT30;56451;44.804;20.476;2023-12-22T12:49:08;11.72;57.73
68867;SHT30;56451;44.804;20.476;2023-12-22T12:51:58;11.77;57.75
68867;SHT30;56451;44.804;20.476;2023-12-22T12:54:31;11.79;57.22
68867;SHT30;56451;44.804;20.476;2023-12-22T12:57:18;11.89;56.89
68867;SHT30;56451;44.804;20.476;2023-12-22T13:00:05;11.93;56.43
68867;SHT30;56451;44.804;20.476;2023-12-22T13:02:59;12.02;56.59
68867;SHT30;56451;44.804;20.476;2023-12-22T13:05:46;12.12;55.67
68867;SHT30;56451;44.804;20.476;2023-12-22T13:08:32;12.15;56.31
68867;SHT30;56451;44.804;20.476;2023-12-22T13:14:12;12.15;53.45
68867;SHT30;56451;44.804;20.476;2023-12-22T13:16:58;12.09;53.57
68867;SHT30;56451;44.804;20.476;2023-12-22T13:19:46;12.00;52.81
68867;SHT30;56451;44.804;20.476;2023-12-22T13:22:33;11.99;52.66
68867;SHT30;56451;44.804;20.476;2023-12-22T13:25:19;11.89;51.84
68867;SHT30;56451;44.804;20.476;2023-12-22T13:28:06;11.83;52.38
68867;SHT30;56451;44.804;20.476;2023-12-22T13:30:57;11.86;52.27
68867;SHT30;56451;44.804;20.476;2023-12-22T13:33:24;11.79;51.75
68867;SHT30;56451;44.804;20.476;2023-12-22T13:36:12;11.77;51.60
68867;SHT30;56451;44.804;20.476;2023-12-22T13:38:39;11.79;51.79
68867;SHT30;56451;44.804;20.476;2023-12-22T13:41:26;11.74;51.71
68867;SHT30;56451;44.804;20.476;2023-12-22T13:44:28;11.67;50.03
68867;SHT30;56451;44.804;20.476;2023-12-22T13:47:19;11.58;51.09
68867;SHT30;56451;44.804;20.476;2023-12-22T13:49:51;11.52;50.59
68867;SHT30;56451;44.804;20.476;2023-12-22T13:52:38;11.52;50.26
68867;SHT30;56451;44.804;20.476;2023-12-22T13:55:25;11.47;49.81
68867;SHT30;56451;44.804;20.476;2023-12-22T13:58:46;11.37;50.54
68867;SHT30;56451;44.804;20.476;2023-12-22T14:01:33;11.40;50.17
68867;SHT30;56451;44.804;20.476;2023-12-22T14:04:20;11.38;50.07
68867;SHT30;56451;44.804;20.476;2023-12-22T14:07:14;11.35;50.56
68867;SHT30;56451;44.804;20.476;2023-12-22T14:10:07;11.40;50.11
68867;SHT30;56451;44.804;20.476;2023-12-22T14:12:54;11.38;49.71
68867;SHT30;56451;44.804;20.476;2023-12-22T14:15:45;11.26;50.55
68867;SHT30;56451;44.804;20.476;2023-12-22T14:18:31;11.30;50.84
68867;SHT30;56451;44.804;20.476;2023-12-22T14:21:17;11.28;51.52
68867;SHT30;56451;44.804;20.476;2023-12-22T14:24:04;11.30;51.64
68867;SHT30;56451;44.804;20.476;2023-12-22T14:26:56;11.31;51.40
68867;SHT30;56451;44.804;20.476;2023-12-22T14:29:42;11.34;51.57
68867;SHT30;56451;44.804;20.476;2023-12-22T14:32:30;11.43;51.19
68867;SHT30;56451;44.804;20.476;2023-12-22T14:35:01;11.43;51.42
68867;SHT30;56451;44.804;20.476;2023-12-22T14:37:47;11.44;51.43
68867;SHT30;56451;44.804;20.476;2023-12-22T14:40:43;11.44;50.31
68867;SHT30;56451;44.804;20.476;2023-12-22T14:43:30;11.40;49.42
68867;SHT30;56451;44.804;20.476;2023-12-22T14:46:16;11.34;49.56
68867;SHT30;56451;44.804;20.476;2023-12-22T14:49:02;11.34;49.40
68867;SHT30;56451;44.804;20.476;2023-12-22T14:51:49;11.34;48.37
68867;SHT30;56451;44.804;20.476;2023-12-22T14:54:41;11.31;46.69
68867;SHT30;56451;44.804;20.476;2023-12-22T14:57:34;11.17;46.87
68867;SHT30;56451;44.804;20.476;2023-12-22T15:00:20;11.16;46.80
68867;SHT30;56451;44.804;20.476;2023-12-22T15:03:06;11.22;47.20
68867;SHT30;56451;44.804;20.476;2023-12-22T15:05:52;11.19;47.77
68867;SHT30;56451;44.804;20.476;2023-12-22T15:08:39;11.19;48.20
68867;SHT30;56451;44.804;20.476;2023-12-22T15:11:26;11.16;49.23
68867;SHT30;56451;44.804;20.476;2023-12-22T15:14:14;11.10;47.76
68867;SHT30;56451;44.804;20.476;2023-12-22T15:17:00;10.97;48.37
68867;SHT30;56451;44.804;20.476;2023-12-22T15:19:47;10.89;48.78
68867;SHT30;56451;44.804;20.476;2023-12-22T15:22:33;10.77;49.46
68867;SHT30;56451;44.804;20.476;2023-12-22T15:25:26;10.76;49.06
68867;SHT30;56451;44.804;20.476;2023-12-22T15:28:12;10.73;49.16
68867;SHT30;56451;44.804;20.476;2023-12-22T15:30:58;10.76;49.35
68867;SHT30;56451;44.804;20.476;2023-12-22T15:33:45;10.82;48.91
68867;SHT30;56451;44.804;20.476;2023-12-22T15:36:32;10.79;49.13
68867;SHT30;56451;44.804;20.476;2023-12-22T15:38:59;10.79;49.61
68867;SHT30;56451;44.804;20.476;2023-12-22T15:41:29;10.72;49.88
68867;SHT30;56451;44.804;20.476;2023-12-22T15:43:56;10.73;50.83
68867;SHT30;56451;44.804;20.476;2023-12-22T15:46:42;10.76;50.68
68867;SHT30;56451;44.804;20.476;2023-12-22T15:49:28;10.82;50.59
68867;SHT30;56451;44.804;20.476;2023-12-22T15:51:57;10.86;50.97
68867;SHT30;56451;44.804;20.476;2023-12-22T15:54:24;10.89;51.15
68867;SHT30;56451;44.804;20.476;2023-12-22T15:57:11;10.83;51.61
68867;SHT30;56451;44.804;20.476;2023-12-22T15:59:37;10.86;52.35
68867;SHT30;56451;44.804;20.476;2023-12-22T16:02:03;10.83;51.94
68867;SHT30;56451;44.804;20.476;2023-12-22T16:04:30;10.76;52.27
68867;SHT30;56451;44.804;20.476;2023-12-22T16:07:16;10.71;52.47
68867;SHT30;56451;44.804;20.476;2023-12-22T16:10:02;10.69;53.30
68867;SHT30;56451;44.804;20.476;2023-12-22T16:12:49;10.73;52.83
68867;SHT30;56451;44.804;20.476;2023-12-22T16:15:47;10.68;53.19
68867;SHT30;56451;44.804;20.476;2023-12-22T16:18:38;10.59;54.00
68867;SHT30;56451;44.804;20.476;2023-12-22T16:21:25;10.55;53.68
68867;SHT30;56451;44.804;20.476;2023-12-22T16:24:24;10.59;54.58
68867;SHT30;56451;44.804;20.476;2023-12-22T16:27:14;10.49;53.73
68867;SHT30;56451;44.804;20.476;2023-12-22T16:29:44;10.52;54.12
68867;SHT30;56451;44.804;20.476;2023-12-22T16:32:33;10.56;53.99
68867;SHT30;56451;44.804;20.476;2023-12-22T16:35:20;10.64;53.50
68867;SHT30;56451;44.804;20.476;2023-12-22T16:38:06;10.61;53.46
68867;SHT30;56451;44.804;20.476;2023-12-22T16:40:52;10.55;53.83
68867;SHT30;56451;44.804;20.476;2023-12-22T16:43:39;10.46;53.89
68867;SHT30;56451;44.804;20.476;2023-12-22T16:46:26;10.34;54.12
68867;SHT30;56451;44.804;20.476;2023-12-22T16:49:13;10.35;54.78
68867;SHT30;56451;44.804;20.476;2023-12-22T16:52:00;10.31;55.02
68867;SHT30;56451;44.804;20.476;2023-12-22T16:54:51;10.38;55.24
68867;SHT30;56451;44.804;20.476;2023-12-22T16:57:37;10.40;55.28